Time;durP1;ratioP1;P1;durP2;ratioP2;P2;SDS_P1;SDS_P2;PMS_P1;PMS_P2;Temp;Humidity;BMP_temperature;BMP_pressure;BME280_temperature;BME280_humidity;BME280_pressure;Samples;Min_cycle;Max_cycle;Signal;HPM_P1;HPM_P2
2023/04/19 00:00:30;;;;;;;13.33;12.23;;;12.60;99.90;;;;;;10410885;28;20683;-81
2023/04/19 00:05:32;;;;;;;13.30;12.20;;;12.60;99.90;;;;;;10428061;28;20234;-81
2023/04/19 00:10:36;;;;;;;13.70;12.60;;;12.60;99.90;;;;;;10408267;28;20214;-80
2023/04/19 00:15:39;;;;;;;15.03;13.70;;;12.60;99.90;;;;;;10421370;28;20272;-80
2023/04/19 00:20:41;;;;;;;14.10;12.80;;;12.60;99.90;;;;;;10401323;28;20257;-80
2023/04/19 00:25:46;;;;;;;15.67;14.43;;;12.60;99.90;;;;;;10402050;28;20218;-80
2023/04/19 00:30:49;;;;;;;15.60;14.17;;;12.50;99.90;;;;;;10419770;28;20278;-80
2023/04/19 00:35:51;;;;;;;13.93;12.83;;;12.60;99.90;;;;;;10401541;28;20760;-80
2023/04/19 00:40:55;;;;;;;14.10;12.80;;;12.60;99.90;;;;;;10384924;28;20782;-80
2023/04/19 00:45:58;;;;;;;15.03;13.60;;;12.50;99.90;;;;;;10400770;28;20234;-80
2023/04/19 00:51:00;;;;;;;14.67;13.47;;;12.50;99.90;;;;;;10384562;28;20205;-80
2023/04/19 00:56:05;;;;;;;16.03;14.53;;;12.50;99.90;;;;;;10399918;28;20214;-79
2023/04/19 01:01:08;;;;;;;15.60;14.10;;;12.50;99.90;;;;;;10396014;28;20690;-80
2023/04/19 01:06:10;;;;;;;15.53;14.13;;;12.40;99.90;;;;;;10415460;28;20222;-80
2023/04/19 01:11:12;;;;;;;16.27;14.77;;;12.40;99.90;;;;;;10400241;28;20275;-80
2023/04/19 01:16:16;;;;;;;15.40;14.07;;;12.40;99.90;;;;;;10416340;28;20226;-80
2023/04/19 01:21:18;;;;;;;16.30;14.90;;;12.40;99.90;;;;;;10382912;28;20878;-80
2023/04/19 01:26:22;;;;;;;16.07;14.67;;;12.40;99.90;;;;;;10399161;28;20225;-80
2023/04/19 01:31:24;;;;;;;16.90;15.40;;;12.40;99.90;;;;;;10416099;28;20187;-80
2023/04/19 01:36:26;;;;;;;18.37;16.63;;;12.40;99.90;;;;;;10400264;28;20214;-80
2023/04/19 01:41:30;;;;;;;17.60;15.97;;;12.40;99.90;;;;;;10415495;28;20598;-80
2023/04/19 01:46:32;;;;;;;17.00;15.60;;;12.30;99.90;;;;;;10398193;28;20690;-79
2023/04/19 01:51:34;;;;;;;17.57;15.77;;;12.40;99.90;;;;;;10415927;28;20191;-79
2023/04/19 01:56:38;;;;;;;17.63;16.03;;;12.40;99.90;;;;;;10415598;28;20257;-79
2023/04/19 02:01:40;;;;;;;18.27;16.57;;;12.30;99.90;;;;;;10398300;28;20210;-80
2023/04/19 02:06:42;;;;;;;18.03;16.47;;;12.30;99.90;;;;;;10397298;28;20214;-80
2023/04/19 02:11:45;;;;;;;17.77;16.20;;;12.30;99.90;;;;;;10382188;28;20194;-80
2023/04/19 02:16:48;;;;;;;17.83;16.13;;;12.30;99.90;;;;;;10414157;28;20718;-79
2023/04/19 02:21:50;;;;;;;19.60;17.60;;;12.30;99.90;;;;;;10397137;28;20222;-80
2023/04/19 02:26:54;;;;;;;18.57;16.87;;;12.30;99.90;;;;;;10380630;28;20195;-80
2023/04/19 02:31:56;;;;;;;18.60;17.00;;;12.30;99.90;;;;;;10415008;28;20185;-80
2023/04/19 02:36:58;;;;;;;17.73;16.13;;;12.20;99.90;;;;;;10397028;28;20199;-80
2023/04/19 02:42:02;;;;;;;19.97;18.07;;;12.20;99.90;;;;;;10396925;28;20242;-79
2023/04/19 02:47:04;;;;;;;18.93;17.23;;;12.20;99.90;;;;;;10422200;28;20659;-80
2023/04/19 02:52:06;;;;;;;18.77;17.07;;;12.20;99.90;;;;;;10390524;28;20762;-80
2023/04/19 02:57:10;;;;;;;17.53;15.83;;;12.10;99.90;;;;;;10388206;28;20197;-81
2023/04/19 03:02:15;;;;;;;18.87;17.17;;;12.10;99.90;;;;;;10389409;28;20234;-81
2023/04/19 03:07:17;;;;;;;19.90;17.93;;;12.10;99.90;;;;;;10423498;28;20199;-81
2023/04/19 03:12:21;;;;;;;19.03;17.00;;;12.10;99.90;;;;;;10421035;23;20701;-82
2023/04/19 03:17:24;;;;;;;21.03;18.77;;;12.10;99.90;;;;;;10443866;28;20301;-80
2023/04/19 03:22:27;;;;;;;19.53;17.43;;;12.10;99.90;;;;;;10442046;28;20229;-82
2023/04/19 03:27:30;;;;;;;20.03;18.10;;;12.10;99.90;;;;;;10410631;28;20206;-82
2023/04/19 03:32:37;;;;;;;20.13;18.43;;;12.10;99.90;;;;;;10434774;28;20206;-82
2023/04/19 03:37:42;;;;;;;20.47;18.47;;;12.10;99.90;;;;;;10463255;28;20198;-82
2023/04/19 03:42:46;;;;;;;21.57;19.67;;;12.10;99.90;;;;;;10424653;28;20309;-81
2023/04/19 03:47:57;;;;;;;20.83;18.83;;;12.10;99.90;;;;;;10434398;28;20206;-81
2023/04/19 03:53:00;;;;;;;21.80;19.60;;;12.10;99.90;;;;;;10407708;28;20287;-82
2023/04/19 03:58:04;;;;;;;21.90;19.90;;;12.10;99.90;;;;;;10437208;28;20206;-81
2023/04/19 04:03:14;;;;;;;20.93;18.93;;;12.10;99.90;;;;;;10413196;28;20563;-81
2023/04/19 04:08:17;;;;;;;19.90;18.20;;;12.00;99.90;;;;;;10410351;28;20202;-81
2023/04/19 04:13:20;;;;;;;22.23;20.13;;;12.00;99.90;;;;;;10460082;28;20218;-81
2023/04/19 04:18:37;;;;;;;21.33;19.33;;;12.00;99.90;;;;;;10398317;28;20214;-81
2023/04/19 04:23:42;;;;;;;21.23;19.13;;;11.90;99.90;;;;;;10392797;28;20317;-81
2023/04/19 04:28:52;;;;;;;22.10;19.93;;;11.80;99.90;;;;;;10429167;28;20658;-81
2023/04/19 04:34:02;;;;;;;21.37;19.47;;;11.70;99.90;;;;;;10427955;28;20682;-81
2023/04/19 04:39:09;;;;;;;22.53;20.33;;;11.70;99.90;;;;;;10418254;28;20286;-81
2023/04/19 04:44:14;;;;;;;24.10;21.70;;;11.70;99.90;;;;;;10431206;28;20228;-81
2023/04/19 04:49:20;;;;;;;22.23;20.17;;;11.60;99.90;;;;;;10422213;28;20244;-80
2023/04/19 04:54:27;;;;;;;21.57;19.60;;;11.60;99.90;;;;;;10448135;28;20220;-82
2023/04/19 04:59:33;;;;;;;21.53;19.53;;;11.50;99.90;;;;;;10379916;28;20583;-80
2023/04/19 05:04:35;;;;;;;21.77;19.80;;;11.50;99.90;;;;;;10422013;28;20218;-81
2023/04/19 05:09:37;;;;;;;21.93;19.77;;;11.60;99.90;;;;;;10439410;28;20219;-79
2023/04/19 05:14:41;;;;;;;22.30;20.20;;;11.60;99.90;;;;;;10423423;28;20236;-79
2023/04/19 05:19:43;;;;;;;21.57;19.67;;;11.70;99.90;;;;;;10418420;28;20273;-81
2023/04/19 05:24:48;;;;;;;22.47;20.40;;;11.80;99.90;;;;;;10398252;28;20219;-81
2023/04/19 05:29:53;;;;;;;22.50;20.30;;;11.80;99.90;;;;;;10386479;28;20242;-81
2023/04/19 05:34:56;;;;;;;21.77;19.77;;;11.80;99.90;;;;;;10424239;28;20228;-81
2023/04/19 05:39:58;;;;;;;21.63;19.43;;;11.90;99.90;;;;;;10405355;28;20202;-81
2023/04/19 05:45:10;;;;;;;22.30;20.10;;;11.90;99.90;;;;;;10362234;28;20215;-81
2023/04/19 05:50:13;;;;;;;20.90;18.93;;;11.90;99.90;;;;;;10384917;28;20186;-80
2023/04/19 05:55:21;;;;;;;21.37;19.33;;;12.00;99.90;;;;;;10390303;28;20682;-81
2023/04/19 06:00:28;;;;;;;21.67;19.37;;;12.00;99.90;;;;;;10431099;28;20565;-80
2023/04/19 06:05:44;;;;;;;20.80;18.90;;;12.00;99.90;;;;;;10413214;28;20310;-81
2023/04/19 06:10:48;;;;;;;19.40;17.60;;;12.00;99.90;;;;;;10429587;28;20228;-81
2023/04/19 06:15:51;;;;;;;20.50;18.60;;;12.00;99.90;;;;;;10395380;28;20312;-79
2023/04/19 06:20:53;;;;;;;20.73;18.83;;;12.10;99.90;;;;;;10432694;28;20205;-79
2023/04/19 06:25:55;;;;;;;19.70;17.87;;;12.10;99.90;;;;;;10421757;28;20210;-81
2023/04/19 06:30:59;;;;;;;19.27;17.47;;;12.20;99.90;;;;;;10435132;28;20269;-81
2023/04/19 06:36:01;;;;;;;20.30;18.30;;;12.30;99.90;;;;;;10429259;28;20681;-82
2023/04/19 06:41:03;;;;;;;20.20;18.23;;;12.30;99.90;;;;;;10435362;28;20210;-81
2023/04/19 06:46:07;;;;;;;19.43;17.40;;;12.40;99.90;;;;;;10423352;28;20237;-81
2023/04/19 06:51:09;;;;;;;18.23;16.33;;;12.40;99.90;;;;;;10392047;28;20277;-81
2023/04/19 06:56:12;;;;;;;20.33;16.93;;;12.50;99.90;;;;;;10436036;28;20214;-80
2023/04/19 07:01:15;;;;;;;18.93;17.30;;;12.50;99.90;;;;;;10455258;28;20218;-80
2023/04/19 07:06:17;;;;;;;18.80;17.00;;;12.60;99.90;;;;;;10440591;28;20229;-79
2023/04/19 07:11:19;;;;;;;19.10;17.30;;;12.70;99.90;;;;;;10422634;28;20202;-80
2023/04/19 07:16:26;;;;;;;25.70;16.90;;;12.90;99.90;;;;;;10412526;28;20312;-82
2023/04/19 07:21:32;;;;;;;18.93;17.23;;;13.00;99.90;;;;;;10445567;28;20237;-81
2023/04/19 07:26:34;;;;;;;18.17;16.57;;;13.00;99.90;;;;;;10462800;28;20297;-80
2023/04/19 07:31:40;;;;;;;17.33;15.80;;;13.10;99.90;;;;;;10467411;28;20385;-82
2023/04/19 07:36:42;;;;;;;17.67;15.93;;;13.30;99.90;;;;;;10445690;28;20211;-80
2023/04/19 07:41:45;;;;;;;18.20;16.50;;;13.50;99.90;;;;;;10399270;28;20314;-82
2023/04/19 07:46:48;;;;;;;16.70;15.00;;;13.70;99.90;;;;;;10443308;28;20221;-82
2023/04/19 07:51:50;;;;;;;15.33;13.93;;;13.80;99.90;;;;;;10434757;28;20194;-82
2023/04/19 07:56:53;;;;;;;17.90;15.63;;;13.90;99.90;;;;;;10403136;28;20215;-82
2023/04/19 08:01:56;;;;;;;15.90;14.20;;;14.10;99.90;;;;;;10433384;28;20210;-82
2023/04/19 08:06:58;;;;;;;14.53;13.03;;;14.20;99.90;;;;;;10443066;28;20224;-82
2023/04/19 08:12:01;;;;;;;15.07;13.67;;;14.40;99.90;;;;;;10447769;28;20190;-82
2023/04/19 08:17:04;;;;;;;12.60;11.50;;;14.50;99.90;;;;;;10418039;28;20233;-82
2023/04/19 08:22:06;;;;;;;14.87;13.53;;;14.60;99.90;;;;;;10425650;28;20733;-82
2023/04/19 08:27:09;;;;;;;15.10;13.70;;;14.80;99.90;;;;;;10428698;28;20248;-80
2023/04/19 08:32:13;;;;;;;14.60;13.20;;;14.80;99.90;;;;;;10426594;28;20199;-82
2023/04/19 08:37:15;;;;;;;12.33;11.23;;;14.70;99.90;;;;;;10429175;28;20276;-82
2023/04/19 08:42:18;;;;;;;12.07;11.00;;;14.60;99.90;;;;;;10427037;28;20218;-82
2023/04/19 08:47:22;;;;;;;10.53;9.53;;;14.70;98.90;;;;;;10438030;28;20237;-81
2023/04/19 08:52:25;;;;;;;11.13;10.00;;;14.60;98.60;;;;;;10432762;28;20190;-81
2023/04/19 08:57:30;;;;;;;13.50;11.30;;;14.60;99.20;;;;;;10416613;28;20218;-82
2023/04/19 09:02:46;;;;;;;10.03;9.23;;;14.60;99.90;;;;;;10438185;28;20218;-80
2023/04/19 09:07:48;;;;;;;11.90;10.80;;;14.60;99.70;;;;;;10421287;28;20202;-81
2023/04/19 09:13:01;;;;;;;11.13;9.67;;;14.70;98.60;;;;;;10433849;23;20218;-80
2023/04/19 09:18:06;;;;;;;12.00;10.73;;;15.00;97.50;;;;;;10460918;28;20686;-80
2023/04/19 09:23:11;;;;;;;11.10;10.00;;;15.40;98.60;;;;;;10427990;28;20221;-80
2023/04/19 09:28:14;;;;;;;11.50;10.40;;;15.60;97.30;;;;;;10462991;28;20182;-80
2023/04/19 09:33:31;;;;;;;19.03;10.37;;;15.80;96.50;;;;;;10444747;28;20297;-80
2023/04/19 09:38:47;;;;;;;11.60;10.40;;;15.90;96.10;;;;;;10445616;28;20189;-81
2023/04/19 09:43:50;;;;;;;11.23;10.23;;;16.00;97.10;;;;;;10464324;28;20251;-80
2023/04/19 09:48:53;;;;;;;14.63;11.93;;;16.20;98.10;;;;;;10462113;28;20288;-81
2023/04/19 09:53:55;;;;;;;12.17;10.97;;;16.50;97.50;;;;;;10423552;28;20210;-80
2023/04/19 09:58:57;;;;;;;10.97;10.07;;;16.90;97.10;;;;;;10440335;28;20202;-80
2023/04/19 10:04:04;;;;;;;12.37;10.90;;;17.20;96.60;;;;;;10441477;28;20729;-80
2023/04/19 10:09:07;;;;;;;11.67;10.60;;;17.50;96.40;;;;;;10459714;28;20656;-80
2023/04/19 10:14:10;;;;;;;10.60;9.67;;;17.50;94.40;;;;;;10438890;28;20221;-80
2023/04/19 10:19:17;;;;;;;11.40;9.80;;;17.30;94.20;;;;;;10455651;28;20200;-80
2023/04/19 10:24:20;;;;;;;11.03;10.03;;;17.10;95.30;;;;;;10441929;28;20230;-80
2023/04/19 10:29:56;;;;;;;9.60;8.80;;;17.00;94.90;;;;;;10453654;28;20621;-80
2023/04/19 10:35:07;;;;;;;10.30;9.40;;;17.00;95.40;;;;;;10421385;28;20264;-80
2023/04/19 10:40:11;;;;;;;10.13;9.20;;;16.90;95.80;;;;;;10454983;28;20194;-80
2023/04/19 10:45:32;;;;;;;11.10;9.90;;;16.70;96.00;;;;;;10448332;28;20229;-80
2023/04/19 10:51:01;;;;;;;10.90;9.90;;;16.60;95.70;;;;;;10436888;28;20194;-80
2023/04/19 10:56:03;;;;;;;11.30;10.20;;;16.40;95.90;;;;;;10437581;28;20218;-80
2023/04/19 11:01:33;;;;;;;11.93;9.67;;;16.10;95.50;;;;;;10454066;28;20226;-80
2023/04/19 11:06:37;;;;;;;10.73;9.63;;;15.70;96.10;;;;;;10414594;28;20716;-80
2023/04/19 11:11:39;;;;;;;10.93;9.87;;;15.60;97.10;;;;;;10460812;28;20665;-80
2023/04/19 11:16:41;;;;;;;11.40;10.30;;;15.60;97.10;;;;;;10443358;28;20226;-80
2023/04/19 11:21:46;;;;;;;10.77;9.77;;;15.70;97.40;;;;;;10448415;28;20237;-80
2023/04/19 11:26:48;;;;;;;11.73;10.63;;;15.60;97.10;;;;;;10465485;28;20279;-79
2023/04/19 11:31:50;;;;;;;11.83;10.83;;;15.40;97.90;;;;;;10464722;28;20828;-79
2023/04/19 11:36:53;;;;;;;11.97;10.97;;;15.30;98.20;;;;;;10464504;28;20214;-80
2023/04/19 11:41:56;;;;;;;11.53;10.57;;;15.10;97.50;;;;;;10463951;28;20648;-80
2023/04/19 11:47:00;;;;;;;13.47;12.17;;;14.90;98.60;;;;;;10411511;28;20215;-80
2023/04/19 11:52:06;;;;;;;13.20;12.10;;;14.70;99.10;;;;;;10446032;28;20205;-80
2023/04/19 11:57:09;;;;;;;14.60;13.10;;;14.60;99.90;;;;;;10464575;28;20237;-80
2023/04/19 12:02:12;;;;;;;16.23;14.70;;;14.50;99.90;;;;;;10446692;28;20213;-80
2023/04/19 12:07:15;;;;;;;16.83;15.13;;;14.30;99.90;;;;;;10446066;28;20242;-80
2023/04/19 12:12:31;;;;;;;18.53;16.73;;;14.20;99.90;;;;;;10446887;28;20256;-80
2023/04/19 12:17:34;;;;;;;19.33;17.40;;;14.10;99.90;;;;;;10462725;28;20233;-80
2023/04/19 12:22:38;;;;;;;20.10;18.20;;;13.90;99.90;;;;;;10428856;28;20213;-80
2023/04/19 12:27:41;;;;;;;18.67;16.67;;;13.90;99.90;;;;;;10446544;28;20236;-80
2023/04/19 12:32:43;;;;;;;19.43;17.63;;;13.70;99.90;;;;;;10447804;28;20194;-80
2023/04/19 12:37:46;;;;;;;20.57;18.57;;;13.60;99.90;;;;;;10466192;28;20221;-80
2023/04/19 12:42:48;;;;;;;21.80;19.80;;;13.40;99.90;;;;;;10468650;28;20297;-80
2023/04/19 12:47:50;;;;;;;22.87;20.70;;;13.30;99.90;;;;;;10454350;28;20547;-80
2023/04/19 12:52:54;;;;;;;23.63;21.13;;;13.10;99.90;;;;;;10447259;28;20198;-79
2023/04/19 12:57:56;;;;;;;23.30;21.00;;;13.00;99.90;;;;;;10444714;28;20566;-80
2023/04/19 13:02:58;;;;;;;25.43;22.83;;;12.90;99.90;;;;;;10429231;28;20228;-80
2023/04/19 13:08:02;;;;;;;23.33;20.87;;;12.80;99.90;;;;;;10444788;28;20565;-80
2023/04/19 13:13:04;;;;;;;23.30;21.00;;;12.80;99.90;;;;;;10463547;28;20222;-80
2023/04/19 13:18:06;;;;;;;22.07;19.77;;;12.80;99.90;;;;;;10445457;28;20232;-80
2023/04/19 13:23:09;;;;;;;20.10;18.00;;;12.80;99.90;;;;;;10461483;28;20222;-80
2023/04/19 13:28:11;;;;;;;20.30;18.30;;;12.80;99.90;;;;;;10432480;28;20239;-81
2023/04/19 13:33:14;;;;;;;19.00;17.10;;;12.80;99.90;;;;;;10456816;28;20645;-80
2023/04/19 13:38:17;;;;;;;19.57;17.57;;;12.80;99.90;;;;;;10460188;28;20182;-80
2023/04/19 13:43:19;;;;;;;16.83;15.20;;;12.80;99.90;;;;;;10467414;28;20239;-80
2023/04/19 13:48:21;;;;;;;17.57;15.87;;;12.80;99.90;;;;;;10485518;28;20200;-80
2023/04/19 13:53:27;;;;;;;18.53;15.93;;;12.80;99.90;;;;;;10459631;28;20677;-80
2023/04/19 13:58:29;;;;;;;17.70;15.40;;;12.80;99.90;;;;;;10441319;28;20253;-80
2023/04/19 14:03:32;;;;;;;15.70;14.30;;;12.80;99.90;;;;;;10459374;28;20245;-80
2023/04/19 14:08:35;;;;;;;17.43;15.83;;;12.80;99.90;;;;;;10458834;28;20374;-80
2023/04/19 14:13:38;;;;;;;18.70;17.10;;;12.80;99.90;;;;;;10440954;28;20643;-80
2023/04/19 14:18:40;;;;;;;18.20;16.60;;;13.00;99.90;;;;;;10459447;28;20259;-81
2023/04/19 14:23:44;;;;;;;14.70;13.20;;;13.20;99.90;;;;;;10428989;28;20293;-81
2023/04/19 14:28:46;;;;;;;15.90;14.40;;;13.30;99.90;;;;;;10461887;28;20194;-81
2023/04/19 14:33:48;;;;;;;17.17;15.63;;;13.40;99.90;;;;;;10440083;28;20678;-81
2023/04/19 14:38:51;;;;;;;15.40;14.00;;;13.50;99.90;;;;;;10443644;28;20198;-81
2023/04/19 14:43:54;;;;;;;16.57;14.97;;;13.60;99.90;;;;;;10450804;28;20222;-80
2023/04/19 14:49:02;;;;;;;16.23;14.83;;;13.60;99.90;;;;;;10451851;28;20194;-80
2023/04/19 14:54:05;;;;;;;15.40;14.10;;;13.60;99.90;;;;;;10469569;28;20214;-81
2023/04/19 14:59:07;;;;;;;14.90;13.47;;;13.60;99.90;;;;;;10449875;28;20546;-80
2023/04/19 15:04:09;;;;;;;20.40;18.17;;;13.60;99.90;;;;;;10466221;28;20249;-80
2023/04/19 15:09:13;;;;;;;14.70;13.33;;;13.40;99.90;;;;;;10447504;28;20723;-80
2023/04/19 15:14:15;;;;;;;15.40;14.10;;;13.30;99.90;;;;;;10468942;22;20230;-80
2023/04/19 15:19:17;;;;;;;15.37;14.00;;;13.20;99.90;;;;;;10419696;28;20588;-82
2023/04/19 15:24:20;;;;;;;14.57;13.00;;;13.20;99.90;;;;;;10420402;28;20285;-82
2023/04/19 15:29:22;;;;;;;14.33;12.93;;;13.20;99.90;;;;;;10386881;28;20648;-80
2023/04/19 15:34:25;;;;;;;15.73;14.23;;;13.20;99.90;;;;;;10385743;28;20330;-80
2023/04/19 15:39:28;;;;;;;14.53;13.13;;;13.20;99.90;;;;;;10418400;28;20222;-81
2023/04/19 15:44:30;;;;;;;15.03;13.63;;;13.10;99.90;;;;;;10424838;28;20230;-80
2023/04/19 15:49:32;;;;;;;15.93;14.60;;;13.10;99.90;;;;;;10406906;28;20202;-82
2023/04/19 15:54:37;;;;;;;17.07;15.47;;;13.10;99.90;;;;;;10394632;28;20230;-82
2023/04/19 15:59:39;;;;;;;16.87;15.47;;;13.20;99.90;;;;;;10425920;28;20292;-80
2023/04/19 16:04:41;;;;;;;15.00;13.40;;;13.30;99.90;;;;;;10391078;28;20218;-80
2023/04/19 16:09:44;;;;;;;22.20;15.07;;;13.40;99.90;;;;;;10425847;28;20285;-80
2023/04/19 16:14:46;;;;;;;13.63;12.53;;;13.50;99.90;;;;;;10390542;28;20647;-79
2023/04/19 16:19:49;;;;;;;13.10;12.00;;;13.40;99.90;;;;;;10424787;28;20195;-79
2023/04/19 16:24:52;;;;;;;13.80;12.60;;;13.30;99.90;;;;;;10426493;28;20277;-80
2023/04/19 16:29:54;;;;;;;12.33;11.33;;;13.20;99.90;;;;;;10393161;28;20257;-81
2023/04/19 16:34:56;;;;;;;15.07;13.70;;;13.20;99.90;;;;;;10392254;28;20289;-81
2023/04/19 16:40:00;;;;;;;13.90;12.50;;;13.20;99.90;;;;;;10409889;28;20195;-80
2023/04/19 16:45:02;;;;;;;15.37;13.87;;;13.10;99.90;;;;;;10407936;28;20214;-80
2023/04/19 16:50:05;;;;;;;16.40;15.00;;;13.00;99.90;;;;;;10406064;28;20569;-80
2023/04/19 16:55:09;;;;;;;17.53;16.03;;;13.00;99.90;;;;;;10423492;28;20690;-80
2023/04/19 17:00:13;;;;;;;17.47;15.87;;;12.90;99.90;;;;;;10405606;28;20669;-79
2023/04/19 17:05:15;;;;;;;17.20;15.53;;;12.90;99.90;;;;;;10402708;28;20312;-79
2023/04/19 17:10:19;;;;;;;15.87;14.50;;;12.90;99.90;;;;;;10403824;28;20207;-80
2023/04/19 17:15:22;;;;;;;14.13;12.93;;;12.80;99.90;;;;;;10402958;28;20226;-79
2023/04/19 17:20:24;;;;;;;16.60;15.00;;;12.70;99.90;;;;;;10386878;28;20194;-79
2023/04/19 17:25:27;;;;;;;15.83;14.33;;;12.70;99.90;;;;;;10404435;28;20642;-79
2023/04/19 17:30:30;;;;;;;17.83;16.03;;;12.70;99.90;;;;;;10401761;28;20218;-79
2023/04/19 17:35:32;;;;;;;16.93;15.43;;;12.70;99.90;;;;;;10400261;28;20219;-79
2023/04/19 17:40:35;;;;;;;17.90;16.50;;;12.70;99.90;;;;;;10403252;28;20191;-79
2023/04/19 17:45:37;;;;;;;16.83;15.30;;;12.70;99.90;;;;;;10386644;28;20730;-80
2023/04/19 17:50:40;;;;;;;16.40;14.90;;;12.70;99.90;;;;;;10387645;28;20244;-80
2023/04/19 17:55:43;;;;;;;17.67;16.07;;;12.60;99.90;;;;;;10402582;28;20724;-80
2023/04/19 18:00:45;;;;;;;13.93;12.63;;;12.50;99.90;;;;;;10385807;28;20274;-80
2023/04/19 18:05:48;;;;;;;12.57;11.27;;;12.40;99.90;;;;;;10401760;28;20252;-80
2023/04/19 18:10:51;;;;;;;7.67;6.97;;;12.40;99.90;;;;;;10400431;28;20662;-79
2023/04/19 18:15:53;;;;;;;6.70;6.10;;;12.30;99.90;;;;;;10406683;28;20264;-79
2023/04/19 18:20:55;;;;;;;4.57;4.27;;;12.30;99.90;;;;;;10424215;28;20198;-80
2023/04/19 18:26:00;;;;;;;3.83;3.53;;;12.20;99.90;;;;;;10425972;28;20226;-81
2023/04/19 18:31:03;;;;;;;4.37;3.90;;;12.20;96.90;;;;;;10410338;28;20206;-80
2023/04/19 18:36:05;;;;;;;4.00;3.63;;;12.10;96.80;;;;;;10406422;28;20706;-80
2023/04/19 18:41:10;;;;;;;3.33;3.03;;;12.00;96.70;;;;;;10407511;28;20206;-79
2023/04/19 18:46:12;;;;;;;3.93;3.63;;;11.90;95.60;;;;;;10425848;28;20242;-80
2023/04/19 18:51:14;;;;;;;3.80;3.50;;;11.90;98.40;;;;;;10425395;28;20613;-80
2023/04/19 18:56:17;;;;;;;3.90;3.60;;;11.80;94.70;;;;;;10418364;28;20222;-80
2023/04/19 19:01:19;;;;;;;3.90;3.60;;;11.70;93.30;;;;;;10425814;28;20206;-79
2023/04/19 19:06:21;;;;;;;4.17;3.97;;;11.70;96.70;;;;;;10425138;28;20589;-80
2023/04/19 19:11:25;;;;;;;4.30;3.50;;;11.60;97.10;;;;;;10466692;28;20218;-80
2023/04/19 19:16:27;;;;;;;4.63;4.23;;;11.50;96.10;;;;;;10451208;28;20222;-79
2023/04/19 19:21:30;;;;;;;4.37;3.97;;;11.50;96.70;;;;;;10470219;28;20532;-80
2023/04/19 19:26:33;;;;;;;20.77;13.17;;;11.40;97.40;;;;;;10425513;28;20706;-79
2023/04/19 19:31:35;;;;;;;53.17;30.73;;;11.40;96.60;;;;;;10431793;28;20201;-79
2023/04/19 19:36:37;;;;;;;14.73;10.13;;;11.30;96.10;;;;;;10410191;28;20218;-80
2023/04/19 19:41:43;;;;;;;24.70;13.33;;;11.10;95.70;;;;;;10402940;28;20198;-80
2023/04/19 19:46:45;;;;;;;23.03;12.57;;;11.00;96.80;;;;;;10403364;28;20325;-80
2023/04/19 19:51:48;;;;;;;9.17;7.33;;;10.80;95.90;;;;;;10428221;28;20197;-80
2023/04/19 19:56:51;;;;;;;8.63;6.63;;;10.70;95.60;;;;;;10404374;28;20217;-79
2023/04/19 20:01:53;;;;;;;9.90;7.30;;;10.50;95.30;;;;;;10402216;28;20205;-79
2023/04/19 20:06:55;;;;;;;15.93;9.37;;;10.40;95.80;;;;;;10384610;28;20305;-79
2023/04/19 20:11:59;;;;;;;6.20;5.70;;;10.20;96.50;;;;;;10401195;28;20199;-80
2023/04/19 20:17:02;;;;;;;5.87;5.37;;;10.00;95.80;;;;;;10401348;28;20222;-81
2023/04/19 20:22:04;;;;;;;5.63;5.23;;;9.90;97.00;;;;;;10350256;28;20206;-79
2023/04/19 20:27:07;;;;;;;6.80;5.43;;;9.80;97.90;;;;;;10348851;28;20218;-80
2023/04/19 20:32:10;;;;;;;5.37;4.97;;;9.70;96.40;;;;;;10422876;28;20202;-79
2023/04/19 20:37:12;;;;;;;7.97;4.83;;;9.60;97.20;;;;;;10382287;28;20249;-79
2023/04/19 20:42:15;;;;;;;5.70;5.10;;;9.50;96.90;;;;;;10421070;28;20198;-80
2023/04/19 20:47:17;;;;;;;4.53;4.23;;;9.40;97.00;;;;;;10394692;28;20244;-80
2023/04/19 20:52:20;;;;;;;5.87;5.37;;;9.30;96.50;;;;;;10409697;28;20220;-80
2023/04/19 20:57:23;;;;;;;4.97;4.57;;;9.30;96.90;;;;;;10410140;28;20822;-79
2023/04/19 21:02:25;;;;;;;6.60;4.80;;;9.10;97.70;;;;;;10400774;28;20232;-80
2023/04/19 21:07:27;;;;;;;5.60;5.17;;;9.10;97.40;;;;;;10409298;28;20573;-79
2023/04/19 21:12:30;;;;;;;5.20;4.80;;;9.00;97.10;;;;;;10408805;28;20190;-79
2023/04/19 21:17:33;;;;;;;8.57;5.30;;;8.90;97.60;;;;;;10439555;23;20256;-82
2023/04/19 21:22:35;;;;;;;6.10;5.60;;;8.80;97.80;;;;;;10391658;28;20205;-82
2023/04/19 21:27:39;;;;;;;5.67;5.20;;;8.80;97.10;;;;;;10421926;28;20241;-82
2023/04/19 21:32:41;;;;;;;4.97;4.57;;;8.70;97.60;;;;;;10402903;28;20252;-82
2023/04/19 21:37:43;;;;;;;5.30;4.80;;;8.60;97.40;;;;;;10400474;28;20289;-81
2023/04/19 21:42:46;;;;;;;6.20;5.60;;;8.60;96.30;;;;;;10382728;28;20196;-82
2023/04/19 21:47:48;;;;;;;5.67;5.07;;;8.50;96.60;;;;;;10384264;28;20266;-82
2023/04/19 21:52:50;;;;;;;6.53;4.90;;;8.50;95.80;;;;;;10400911;28;20545;-82
2023/04/19 21:57:54;;;;;;;5.73;5.10;;;8.40;96.90;;;;;;10395744;28;20214;-81
2023/04/19 22:02:56;;;;;;;5.03;4.37;;;8.40;97.30;;;;;;10416451;28;20199;-82
2023/04/19 22:07:58;;;;;;;5.63;5.10;;;8.30;97.10;;;;;;10427215;28;20220;-81
2023/04/19 22:13:03;;;;;;;8.00;5.90;;;8.20;97.40;;;;;;10395601;28;20187;-82
2023/04/19 22:18:05;;;;;;;25.23;15.80;;;8.20;97.50;;;;;;10423095;28;20227;-81
2023/04/19 22:23:07;;;;;;;9.57;6.37;;;8.10;97.80;;;;;;10424728;28;20647;-81
2023/04/19 22:28:11;;;;;;;5.80;5.30;;;8.00;98.20;;;;;;10429275;28;20634;-81
2023/04/19 22:33:13;;;;;;;7.40;5.07;;;8.00;96.90;;;;;;10404677;28;20214;-83
2023/04/19 22:38:15;;;;;;;5.27;4.80;;;7.90;97.10;;;;;;10401779;28;20696;-81
2023/04/19 22:43:19;;;;;;;5.47;5.07;;;7.90;97.10;;;;;;10416990;28;20197;-82
2023/04/19 22:48:21;;;;;;;8.53;5.73;;;7.90;97.30;;;;;;10405917;28;20222;-82
2023/04/19 22:53:23;;;;;;;36.33;13.47;;;7.80;97.60;;;;;;10419717;28;20221;-82
2023/04/19 22:58:26;;;;;;;5.40;4.80;;;7.90;97.30;;;;;;10399760;28;20191;-81
2023/04/19 23:03:28;;;;;;;16.73;8.77;;;7.80;97.20;;;;;;10406647;28;20201;-81
2023/04/19 23:08:32;;;;;;;5.13;4.63;;;7.80;97.10;;;;;;10425966;28;20293;-82
2023/04/19 23:13:36;;;;;;;6.20;5.20;;;7.90;98.00;;;;;;10410452;28;20190;-82
2023/04/19 23:18:39;;;;;;;12.73;5.93;;;8.00;97.70;;;;;;10410998;28;20267;-82
2023/04/19 23:23:41;;;;;;;9.93;6.77;;;8.00;98.80;;;;;;10429039;28;20206;-82
2023/04/19 23:28:44;;;;;;;6.20;5.60;;;8.00;99.30;;;;;;10409366;28;20289;-81
2023/04/19 23:33:46;;;;;;;6.10;5.17;;;8.10;99.90;;;;;;10446571;28;20213;-83
2023/04/19 23:38:48;;;;;;;6.07;5.67;;;8.20;98.70;;;;;;10459306;28;20199;-82
2023/04/19 23:43:52;;;;;;;7.50;6.70;;;8.20;98.60;;;;;;10408193;28;20235;-83
2023/04/19 23:48:54;;;;;;;7.03;5.40;;;8.20;97.80;;;;;;10402738;28;20276;-81
2023/04/19 23:53:56;;;;;;;6.50;5.90;;;8.20;98.30;;;;;;10386342;28;20227;-82
2023/04/19 23:58:59;;;;;;;5.33;4.93;;;8.20;97.40;;;;;;10425967;28;20291;-82
